sensor_id;sensor_type;location;lat;lon;timestamp;temperature;humidity
31113;DHT22;17763;48.730;9.136;2023-04-15T00:02:24;5.70;99.90
31113;DHT22;17763;48.730;9.136;2023-04-15T00:04:50;5.70;99.90
31113;DHT22;17763;48.730;9.136;2023-04-15T00:07:18;5.60;99.90
31113;DHT22;17763;48.730;9.136;2023-04-15T00:09:48;5.60;99.90
31113;DHT22;17763;48.730;9.136;2023-04-15T00:12:14;5.60;99.90
31113;DHT22;17763;48.730;9.136;2023-04-15T00:14:40;5.60;99.90
31113;DHT22;17763;48.730;9.136;2023-04-15T00:17:08;5.60;99.90
31113;DHT22;17763;48.730;9.136;2023-04-15T00:19:34;5.50;99.90
31113;DHT22;17763;48.730;9.136;2023-04-15T00:21:59;5.50;99.90
31113;DHT22;17763;48.730;9.136;2023-04-15T00:24:25;5.50;99.90
31113;DHT22;17763;48.730;9.136;2023-04-15T00:26:51;5.40;99.90
31113;DHT22;17763;48.730;9.136;2023-04-15T00:29:23;5.40;99.90
31113;DHT22;17763;48.730;9.136;2023-04-15T00:31:48;5.40;99.90
31113;DHT22;17763;48.730;9.136;2023-04-15T00:34:14;5.40;99.90
31113;DHT22;17763;48.730;9.136;2023-04-15T00:36:40;5.30;99.90
31113;DHT22;17763;48.730;9.136;2023-04-15T00:39:06;5.30;99.90
31113;DHT22;17763;48.730;9.136;2023-04-15T00:41:34;5.30;99.90
31113;DHT22;17763;48.730;9.136;2023-04-15T00:44:04;5.30;99.90
31113;DHT22;17763;48.730;9.136;2023-04-15T00:46:34;5.30;99.90
31113;DHT22;17763;48.730;9.136;2023-04-15T00:49:05;5.30;99.90
31113;DHT22;17763;48.730;9.136;2023-04-15T00:51:32;5.30;99.90
31113;DHT22;17763;48.730;9.136;2023-04-15T00:54:01;5.20;99.90
31113;DHT22;17763;48.730;9.136;2023-04-15T00:56:28;5.20;99.90
31113;DHT22;17763;48.730;9.136;2023-04-15T00:58:53;5.20;99.90
31113;DHT22;17763;48.730;9.136;2023-04-15T01:01:23;5.20;99.90
31113;DHT22;17763;48.730;9.136;2023-04-15T01:03:50;5.20;99.90
31113;DHT22;17763;48.730;9.136;2023-04-15T01:06:17;5.10;99.90
31113;DHT22;17763;48.730;9.136;2023-04-15T01:08:43;5.10;99.90
31113;DHT22;17763;48.730;9.136;2023-04-15T01:11:13;5.10;99.90
31113;DHT22;17763;48.730;9.136;2023-04-15T01:13:39;5.10;99.90
31113;DHT22;17763;48.730;9.136;2023-04-15T01:16:07;5.10;99.90
31113;DHT22;17763;48.730;9.136;2023-04-15T01:18:36;5.10;99.90
31113;DHT22;17763;48.730;9.136;2023-04-15T01:21:05;5.00;99.90
31113;DHT22;17763;48.730;9.136;2023-04-15T01:23:32;5.00;99.90
31113;DHT22;17763;48.730;9.136;2023-04-15T01:25:58;5.00;99.90
31113;DHT22;17763;48.730;9.136;2023-04-15T01:28:24;5.00;99.90
31113;DHT22;17763;48.730;9.136;2023-04-15T01:31:10;5.00;99.90
31113;DHT22;17763;48.730;9.136;2023-04-15T01:33:37;4.90;99.90
31113;DHT22;17763;48.730;9.136;2023-04-15T01:36:04;4.90;99.90
31113;DHT22;17763;48.730;9.136;2023-04-15T01:38:36;4.90;99.90
31113;DHT22;17763;48.730;9.136;2023-04-15T01:41:02;4.90;99.90
31113;DHT22;17763;48.730;9.136;2023-04-15T01:43:33;4.90;99.90
31113;DHT22;17763;48.730;9.136;2023-04-15T01:46:00;4.80;99.90
31113;DHT22;17763;48.730;9.136;2023-04-15T01:48:26;4.80;99.90
31113;DHT22;17763;48.730;9.136;2023-04-15T01:50:54;4.80;99.90
31113;DHT22;17763;48.730;9.136;2023-04-15T01:53:23;4.80;99.90
31113;DHT22;17763;48.730;9.136;2023-04-15T01:55:49;4.80;99.90
31113;DHT22;17763;48.730;9.136;2023-04-15T01:58:15;4.70;99.90
31113;DHT22;17763;48.730;9.136;2023-04-15T02:00:43;4.70;99.90
31113;DHT22;17763;48.730;9.136;2023-04-15T02:03:08;4.60;99.90
31113;DHT22;17763;48.730;9.136;2023-04-15T02:05:34;4.60;99.90
31113;DHT22;17763;48.730;9.136;2023-04-15T02:08:01;4.60;99.90
31113;DHT22;17763;48.730;9.136;2023-04-15T02:10:26;4.60;99.90
31113;DHT22;17763;48.730;9.136;2023-04-15T02:12:52;4.50;99.90
31113;DHT22;17763;48.730;9.136;2023-04-15T02:15:24;4.50;99.90
31113;DHT22;17763;48.730;9.136;2023-04-15T02:17:49;4.50;99.90
31113;DHT22;17763;48.730;9.136;2023-04-15T02:20:18;4.50;99.90
31113;DHT22;17763;48.730;9.136;2023-04-15T02:22:44;4.40;99.90
31113;DHT22;17763;48.730;9.136;2023-04-15T02:25:09;4.30;99.90
31113;DHT22;17763;48.730;9.136;2023-04-15T02:27:36;4.30;99.90
31113;DHT22;17763;48.730;9.136;2023-04-15T02:30:04;4.30;99.90
31113;DHT22;17763;48.730;9.136;2023-04-15T02:32:31;4.30;99.90
31113;DHT22;17763;48.730;9.136;2023-04-15T02:35:01;4.20;99.90
31113;DHT22;17763;48.730;9.136;2023-04-15T02:37:28;4.10;99.90
31113;DHT22;17763;48.730;9.136;2023-04-15T02:39:54;4.10;99.90
31113;DHT22;17763;48.730;9.136;2023-04-15T02:42:20;4.10;99.90
31113;DHT22;17763;48.730;9.136;2023-04-15T02:44:49;4.10;99.90
31113;DHT22;17763;48.730;9.136;2023-04-15T02:47:15;4.00;99.90
31113;DHT22;17763;48.730;9.136;2023-04-15T02:49:40;4.00;99.90
31113;DHT22;17763;48.730;9.136;2023-04-15T02:52:06;4.00;99.90
31113;DHT22;17763;48.730;9.136;2023-04-15T02:54:32;4.00;99.90
31113;DHT22;17763;48.730;9.136;2023-04-15T02:56:58;4.00;99.90
31113;DHT22;17763;48.730;9.136;2023-04-15T02:59:26;4.00;99.90
31113;DHT22;17763;48.730;9.136;2023-04-15T03:01:52;4.00;99.90
31113;DHT22;17763;48.730;9.136;2023-04-15T03:04:21;4.00;99.90
31113;DHT22;17763;48.730;9.136;2023-04-15T03:06:48;4.00;99.90
31113;DHT22;17763;48.730;9.136;2023-04-15T03:09:14;4.00;99.90
31113;DHT22;17763;48.730;9.136;2023-04-15T03:11:43;4.00;99.90
31113;DHT22;17763;48.730;9.136;2023-04-15T03:14:08;4.00;99.90
31113;DHT22;17763;48.730;9.136;2023-04-15T03:16:34;4.00;99.90
31113;DHT22;17763;48.730;9.136;2023-04-15T03:19:00;3.90;99.90
31113;DHT22;17763;48.730;9.136;2023-04-15T03:21:25;3.90;99.90
31113;DHT22;17763;48.730;9.136;2023-04-15T03:23:55;3.90;99.90
31113;DHT22;17763;48.730;9.136;2023-04-15T03:26:30;3.90;99.90
31113;DHT22;17763;48.730;9.136;2023-04-15T03:28:56;3.80;99.90
31113;DHT22;17763;48.730;9.136;2023-04-15T03:31:23;3.80;99.90
31113;DHT22;17763;48.730;9.136;2023-04-15T03:33:48;3.80;99.90
31113;DHT22;17763;48.730;9.136;2023-04-15T03:36:19;3.90;99.90
31113;DHT22;17763;48.730;9.136;2023-04-15T03:38:45;3.80;99.90
31113;DHT22;17763;48.730;9.136;2023-04-15T03:41:13;3.90;99.90
31113;DHT22;17763;48.730;9.136;2023-04-15T03:43:39;3.90;99.90
31113;DHT22;17763;48.730;9.136;2023-04-15T03:46:04;3.90;99.90
31113;DHT22;17763;48.730;9.136;2023-04-15T03:48:32;3.90;99.90
31113;DHT22;17763;48.730;9.136;2023-04-15T03:50:58;3.90;99.90
31113;DHT22;17763;48.730;9.136;2023-04-15T03:53:24;3.90;99.90
31113;DHT22;17763;48.730;9.136;2023-04-15T03:55:49;3.90;99.90
31113;DHT22;17763;48.730;9.136;2023-04-15T03:58:15;3.90;99.90
31113;DHT22;17763;48.730;9.136;2023-04-15T04:00:41;3.80;99.90
31113;DHT22;17763;48.730;9.136;2023-04-15T04:03:07;3.80;99.90
31113;DHT22;17763;48.730;9.136;2023-04-15T04:05:33;3.70;99.90
31113;DHT22;17763;48.730;9.136;2023-04-15T04:08:01;3.70;99.90
31113;DHT22;17763;48.730;9.136;2023-04-15T04:10:30;3.60;99.90
31113;DHT22;17763;48.730;9.136;2023-04-15T04:12:55;3.70;99.90
31113;DHT22;17763;48.730;9.136;2023-04-15T04:15:21;3.60;99.90
31113;DHT22;17763;48.730;9.136;2023-04-15T04:17:47;3.60;99.90
31113;DHT22;17763;48.730;9.136;2023-04-15T04:20:12;3.50;99.90
31113;DHT22;17763;48.730;9.136;2023-04-15T04:22:39;3.50;99.90
31113;DHT22;17763;48.730;9.136;2023-04-15T04:25:06;3.40;99.90
31113;DHT22;17763;48.730;9.136;2023-04-15T04:27:36;3.40;99.90
31113;DHT22;17763;48.730;9.136;2023-04-15T04:30:02;3.40;99.90
31113;DHT22;17763;48.730;9.136;2023-04-15T04:32:27;3.40;99.90
31113;DHT22;17763;48.730;9.136;2023-04-15T04:34:55;3.40;99.90
31113;DHT22;17763;48.730;9.136;2023-04-15T04:37:21;3.30;99.90
31113;DHT22;17763;48.730;9.136;2023-04-15T04:39:53;3.20;99.90
31113;DHT22;17763;48.730;9.136;2023-04-15T04:42:19;3.20;99.90
31113;DHT22;17763;48.730;9.136;2023-04-15T04:44:45;3.20;99.90
31113;DHT22;17763;48.730;9.136;2023-04-15T04:47:14;3.20;99.90
31113;DHT22;17763;48.730;9.136;2023-04-15T04:49:40;3.20;99.90
31113;DHT22;17763;48.730;9.136;2023-04-15T04:52:07;3.20;99.90
31113;DHT22;17763;48.730;9.136;2023-04-15T04:54:33;3.20;99.90
31113;DHT22;17763;48.730;9.136;2023-04-15T04:57:01;3.20;99.90
31113;DHT22;17763;48.730;9.136;2023-04-15T04:59:27;3.20;99.90
31113;DHT22;17763;48.730;9.136;2023-04-15T05:01:53;3.20;99.90
31113;DHT22;17763;48.730;9.136;2023-04-15T05:04:18;3.20;99.90
31113;DHT22;17763;48.730;9.136;2023-04-15T05:06:44;3.20;99.90
31113;DHT22;17763;48.730;9.136;2023-04-15T05:09:10;3.30;99.90
31113;DHT22;17763;48.730;9.136;2023-04-15T05:11:35;3.30;99.90
31113;DHT22;17763;48.730;9.136;2023-04-15T05:14:03;3.30;99.90
31113;DHT22;17763;48.730;9.136;2023-04-15T05:16:29;3.30;99.90
31113;DHT22;17763;48.730;9.136;2023-04-15T05:18:57;3.30;99.90
31113;DHT22;17763;48.730;9.136;2023-04-15T05:21:23;3.30;99.90
31113;DHT22;17763;48.730;9.136;2023-04-15T05:23:51;3.30;99.90
31113;DHT22;17763;48.730;9.136;2023-04-15T05:26:20;3.30;99.90
31113;DHT22;17763;48.730;9.136;2023-04-15T05:28:46;3.30;99.90
31113;DHT22;17763;48.730;9.136;2023-04-15T05:31:12;3.40;99.90
31113;DHT22;17763;48.730;9.136;2023-04-15T05:33:38;3.40;99.90
31113;DHT22;17763;48.730;9.136;2023-04-15T05:36:07;3.50;99.90
31113;DHT22;17763;48.730;9.136;2023-04-15T05:38:33;3.50;99.90
31113;DHT22;17763;48.730;9.136;2023-04-15T05:41:00;3.60;99.90
31113;DHT22;17763;48.730;9.136;2023-04-15T05:43:26;3.70;99.90
31113;DHT22;17763;48.730;9.136;2023-04-15T05:45:52;3.90;99.90
31113;DHT22;17763;48.730;9.136;2023-04-15T05:48:17;4.10;99.90
31113;DHT22;17763;48.730;9.136;2023-04-15T05:50:43;4.60;99.90
31113;DHT22;17763;48.730;9.136;2023-04-15T05:53:09;4.60;99.90
31113;DHT22;17763;48.730;9.136;2023-04-15T05:55:34;4.70;99.90
31113;DHT22;17763;48.730;9.136;2023-04-15T05:58:00;4.80;99.90
31113;DHT22;17763;48.730;9.136;2023-04-15T06:00:33;4.90;99.90
31113;DHT22;17763;48.730;9.136;2023-04-15T06:03:01;4.90;99.90
31113;DHT22;17763;48.730;9.136;2023-04-15T06:05:27;5.00;99.90
31113;DHT22;17763;48.730;9.136;2023-04-15T06:07:52;5.00;99.90
31113;DHT22;17763;48.730;9.136;2023-04-15T06:10:18;5.00;99.90
31113;DHT22;17763;48.730;9.136;2023-04-15T06:12:44;5.20;99.90
31113;DHT22;17763;48.730;9.136;2023-04-15T06:15:10;5.20;99.90
31113;DHT22;17763;48.730;9.136;2023-04-15T06:17:36;5.40;99.90
31113;DHT22;17763;48.730;9.136;2023-04-15T06:20:02;5.40;99.90
31113;DHT22;17763;48.730;9.136;2023-04-15T06:22:28;5.60;99.90
31113;DHT22;17763;48.730;9.136;2023-04-15T06:24:53;5.60;99.90
31113;DHT22;17763;48.730;9.136;2023-04-15T06:27:22;5.70;99.90
31113;DHT22;17763;48.730;9.136;2023-04-15T06:29:48;5.90;99.90
31113;DHT22;17763;48.730;9.136;2023-04-15T06:32:13;6.00;99.90
31113;DHT22;17763;48.730;9.136;2023-04-15T06:34:39;6.10;99.90
31113;DHT22;17763;48.730;9.136;2023-04-15T06:37:05;6.20;99.90
31113;DHT22;17763;48.730;9.136;2023-04-15T06:39:30;6.50;99.90
31113;DHT22;17763;48.730;9.136;2023-04-15T06:41:56;6.50;99.90
31113;DHT22;17763;48.730;9.136;2023-04-15T06:44:22;6.60;99.90
31113;DHT22;17763;48.730;9.136;2023-04-15T06:46:48;6.70;99.90
31113;DHT22;17763;48.730;9.136;2023-04-15T06:49:13;6.80;99.90
31113;DHT22;17763;48.730;9.136;2023-04-15T06:51:41;6.90;99.90
31113;DHT22;17763;48.730;9.136;2023-04-15T06:54:06;7.10;99.90
31113;DHT22;17763;48.730;9.136;2023-04-15T06:56:32;7.30;99.90
31113;DHT22;17763;48.730;9.136;2023-04-15T06:58:58;7.40;99.90
31113;DHT22;17763;48.730;9.136;2023-04-15T07:01:24;7.50;99.90
31113;DHT22;17763;48.730;9.136;2023-04-15T07:03:51;7.60;99.90
31113;DHT22;17763;48.730;9.136;2023-04-15T07:06:20;7.70;99.90
31113;DHT22;17763;48.730;9.136;2023-04-15T07:08:46;7.70;99.90
31113;DHT22;17763;48.730;9.136;2023-04-15T07:11:12;7.90;99.90
31113;DHT22;17763;48.730;9.136;2023-04-15T07:13:38;7.90;99.90
31113;DHT22;17763;48.730;9.136;2023-04-15T07:16:04;8.00;99.90
31113;DHT22;17763;48.730;9.136;2023-04-15T07:18:30;8.00;99.90
31113;DHT22;17763;48.730;9.136;2023-04-15T07:20:58;8.10;99.90
31113;DHT22;17763;48.730;9.136;2023-04-15T07:23:26;8.20;99.90
31113;DHT22;17763;48.730;9.136;2023-04-15T07:25:52;8.30;99.90
31113;DHT22;17763;48.730;9.136;2023-04-15T07:28:18;8.30;99.90
31113;DHT22;17763;48.730;9.136;2023-04-15T07:30:43;8.40;99.90
31113;DHT22;17763;48.730;9.136;2023-04-15T07:33:11;8.50;99.90
31113;DHT22;17763;48.730;9.136;2023-04-15T07:35:37;8.70;99.90
31113;DHT22;17763;48.730;9.136;2023-04-15T07:38:06;8.80;99.90
31113;DHT22;17763;48.730;9.136;2023-04-15T07:40:32;9.00;99.90
31113;DHT22;17763;48.730;9.136;2023-04-15T07:43:00;9.10;99.90
31113;DHT22;17763;48.730;9.136;2023-04-15T07:45:26;9.30;99.90
31113;DHT22;17763;48.730;9.136;2023-04-15T07:47:52;9.40;99.90
31113;DHT22;17763;48.730;9.136;2023-04-15T07:50:17;9.60;99.90
31113;DHT22;17763;48.730;9.136;2023-04-15T07:52:44;9.80;99.90
31113;DHT22;17763;48.730;9.136;2023-04-15T07:55:12;10.00;99.90
31113;DHT22;17763;48.730;9.136;2023-04-15T07:57:38;10.10;99.90
31113;DHT22;17763;48.730;9.136;2023-04-15T08:00:04;10.20;99.90
31113;DHT22;17763;48.730;9.136;2023-04-15T08:02:32;10.40;99.90
31113;DHT22;17763;48.730;9.136;2023-04-15T08:04:57;10.30;99.90
31113;DHT22;17763;48.730;9.136;2023-04-15T08:07:24;10.40;99.90
31113;DHT22;17763;48.730;9.136;2023-04-15T08:09:50;10.40;99.90
31113;DHT22;17763;48.730;9.136;2023-04-15T08:12:18;10.30;97.40
31113;DHT22;17763;48.730;9.136;2023-04-15T08:14:44;10.30;96.90
31113;DHT22;17763;48.730;9.136;2023-04-15T08:17:16;10.30;95.60
31113;DHT22;17763;48.730;9.136;2023-04-15T08:19:42;10.30;94.70
31113;DHT22;17763;48.730;9.136;2023-04-15T08:22:07;10.20;95.20
31113;DHT22;17763;48.730;9.136;2023-04-15T08:24:33;10.30;94.90
31113;DHT22;17763;48.730;9.136;2023-04-15T08:26:59;10.40;93.90
31113;DHT22;17763;48.730;9.136;2023-04-15T08:29:26;10.30;94.60
31113;DHT22;17763;48.730;9.136;2023-04-15T08:31:52;10.40;93.80
31113;DHT22;17763;48.730;9.136;2023-04-15T08:34:18;10.50;95.70
31113;DHT22;17763;48.730;9.136;2023-04-15T08:36:51;10.70;94.00
31113;DHT22;17763;48.730;9.136;2023-04-15T08:39:17;10.70;92.80
31113;DHT22;17763;48.730;9.136;2023-04-15T08:41:59;10.70;93.30
31113;DHT22;17763;48.730;9.136;2023-04-15T08:44:28;10.70;92.40
31113;DHT22;17763;48.730;9.136;2023-04-15T08:46:56;10.70;93.40
31113;DHT22;17763;48.730;9.136;2023-04-15T08:49:26;10.90;93.10
31113;DHT22;17763;48.730;9.136;2023-04-15T08:51:54;11.00;91.90
31113;DHT22;17763;48.730;9.136;2023-04-15T08:54:21;11.20;90.00
31113;DHT22;17763;48.730;9.136;2023-04-15T08:56:47;11.30;85.00
31113;DHT22;17763;48.730;9.136;2023-04-15T08:59:13;11.50;84.20
31113;DHT22;17763;48.730;9.136;2023-04-15T09:01:40;11.60;81.40
31113;DHT22;17763;48.730;9.136;2023-04-15T09:04:12;11.60;82.10
31113;DHT22;17763;48.730;9.136;2023-04-15T09:06:39;11.80;81.50
31113;DHT22;17763;48.730;9.136;2023-04-15T09:09:05;11.80;76.40
31113;DHT22;17763;48.730;9.136;2023-04-15T09:11:33;11.80;76.00
31113;DHT22;17763;48.730;9.136;2023-04-15T09:13:59;11.90;76.40
31113;DHT22;17763;48.730;9.136;2023-04-15T09:16:24;11.90;75.50
31113;DHT22;17763;48.730;9.136;2023-04-15T09:18:50;11.80;76.50
31113;DHT22;17763;48.730;9.136;2023-04-15T09:21:16;11.90;78.30
31113;DHT22;17763;48.730;9.136;2023-04-15T09:23:56;12.00;75.00
31113;DHT22;17763;48.730;9.136;2023-04-15T09:26:36;12.00;75.40
31113;DHT22;17763;48.730;9.136;2023-04-15T09:29:09;12.20;73.50
31113;DHT22;17763;48.730;9.136;2023-04-15T09:31:35;12.30;74.60
31113;DHT22;17763;48.730;9.136;2023-04-15T09:34:05;12.20;70.80
31113;DHT22;17763;48.730;9.136;2023-04-15T09:36:57;12.00;69.80
31113;DHT22;17763;48.730;9.136;2023-04-15T09:39:25;11.90;72.40
31113;DHT22;17763;48.730;9.136;2023-04-15T09:42:06;11.80;72.40
31113;DHT22;17763;48.730;9.136;2023-04-15T09:44:35;11.80;71.00
31113;DHT22;17763;48.730;9.136;2023-04-15T09:47:02;11.80;70.40
31113;DHT22;17763;48.730;9.136;2023-04-15T09:49:27;11.90;72.20
31113;DHT22;17763;48.730;9.136;2023-04-15T09:52:02;12.20;74.50
31113;DHT22;17763;48.730;9.136;2023-04-15T09:54:37;12.60;74.30
31113;DHT22;17763;48.730;9.136;2023-04-15T09:57:09;12.80;69.10
31113;DHT22;17763;48.730;9.136;2023-04-15T09:59:36;12.70;68.10
31113;DHT22;17763;48.730;9.136;2023-04-15T10:02:05;12.90;66.50
31113;DHT22;17763;48.730;9.136;2023-04-15T10:04:34;12.70;67.00
31113;DHT22;17763;48.730;9.136;2023-04-15T10:07:03;12.90;65.20
31113;DHT22;17763;48.730;9.136;2023-04-15T10:09:30;12.70;62.20
31113;DHT22;17763;48.730;9.136;2023-04-15T10:11:56;12.50;66.30
31113;DHT22;17763;48.730;9.136;2023-04-15T10:14:22;12.20;63.80
31113;DHT22;17763;48.730;9.136;2023-04-15T10:16:50;12.00;63.60
31113;DHT22;17763;48.730;9.136;2023-04-15T10:19:23;12.00;66.20
31113;DHT22;17763;48.730;9.136;2023-04-15T10:21:58;12.00;65.90
31113;DHT22;17763;48.730;9.136;2023-04-15T10:24:24;12.30;67.90
31113;DHT22;17763;48.730;9.136;2023-04-15T10:26:51;12.40;66.50
31113;DHT22;17763;48.730;9.136;2023-04-15T10:29:17;12.30;64.50
31113;DHT22;17763;48.730;9.136;2023-04-15T10:31:43;12.10;66.10
31113;DHT22;17763;48.730;9.136;2023-04-15T10:34:09;12.10;67.50
31113;DHT22;17763;48.730;9.136;2023-04-15T10:36:43;12.00;68.10
31113;DHT22;17763;48.730;9.136;2023-04-15T10:44:31;12.10;71.90
31113;DHT22;17763;48.730;9.136;2023-04-15T10:46:57;12.10;70.20
31113;DHT22;17763;48.730;9.136;2023-04-15T10:49:24;12.20;68.30
31113;DHT22;17763;48.730;9.136;2023-04-15T10:51:52;12.10;69.20
31113;DHT22;17763;48.730;9.136;2023-04-15T10:57:21;12.10;70.10
31113;DHT22;17763;48.730;9.136;2023-04-15T11:05:07;12.30;70.90
31113;DHT22;17763;48.730;9.136;2023-04-15T11:12:47;11.90;71.30
31113;DHT22;17763;48.730;9.136;2023-04-15T11:15:35;11.80;71.40
31113;DHT22;17763;48.730;9.136;2023-04-15T11:18:14;11.50;71.90
31113;DHT22;17763;48.730;9.136;2023-04-15T11:20:48;11.50;73.60
31113;DHT22;17763;48.730;9.136;2023-04-15T11:23:17;11.50;74.80
31113;DHT22;17763;48.730;9.136;2023-04-15T11:25:43;11.60;75.80
31113;DHT22;17763;48.730;9.136;2023-04-15T11:28:09;11.70;75.10
31113;DHT22;17763;48.730;9.136;2023-04-15T11:30:36;11.70;74.30
31113;DHT22;17763;48.730;9.136;2023-04-15T11:33:06;11.80;72.10
31113;DHT22;17763;48.730;9.136;2023-04-15T11:35:36;11.80;71.40
31113;DHT22;17763;48.730;9.136;2023-04-15T11:38:07;12.10;71.70
31113;DHT22;17763;48.730;9.136;2023-04-15T11:40:33;12.30;70.20
31113;DHT22;17763;48.730;9.136;2023-04-15T11:43:15;12.30;70.60
31113;DHT22;17763;48.730;9.136;2023-04-15T11:46:07;12.30;69.50
31113;DHT22;17763;48.730;9.136;2023-04-15T11:48:40;12.10;69.20
31113;DHT22;17763;48.730;9.136;2023-04-15T11:51:06;12.20;70.10
31113;DHT22;17763;48.730;9.136;2023-04-15T11:53:46;12.30;72.70
31113;DHT22;17763;48.730;9.136;2023-04-15T11:56:23;12.30;73.70
31113;DHT22;17763;48.730;9.136;2023-04-15T11:58:56;12.40;74.50
31113;DHT22;17763;48.730;9.136;2023-04-15T12:01:36;12.70;75.10
31113;DHT22;17763;48.730;9.136;2023-04-15T12:04:13;12.80;69.10
31113;DHT22;17763;48.730;9.136;2023-04-15T12:06:39;12.60;68.00
31113;DHT22;17763;48.730;9.136;2023-04-15T12:11:34;12.60;66.90
31113;DHT22;17763;48.730;9.136;2023-04-15T12:19:30;12.80;67.50
31113;DHT22;17763;48.730;9.136;2023-04-15T12:22:10;12.90;67.10
31113;DHT22;17763;48.730;9.136;2023-04-15T12:24:37;12.90;68.90
31113;DHT22;17763;48.730;9.136;2023-04-15T12:27:04;13.00;67.90
31113;DHT22;17763;48.730;9.136;2023-04-15T12:29:30;12.90;64.50
31113;DHT22;17763;48.730;9.136;2023-04-15T12:32:06;12.90;67.40
31113;DHT22;17763;48.730;9.136;2023-04-15T12:34:34;12.90;66.30
31113;DHT22;17763;48.730;9.136;2023-04-15T12:37:09;12.90;66.50
31113;DHT22;17763;48.730;9.136;2023-04-15T12:39:36;13.20;68.70
31113;DHT22;17763;48.730;9.136;2023-04-15T12:42:13;13.10;68.70
31113;DHT22;17763;48.730;9.136;2023-04-15T12:44:39;12.80;69.90
31113;DHT22;17763;48.730;9.136;2023-04-15T12:47:06;12.10;72.20
31113;DHT22;17763;48.730;9.136;2023-04-15T12:49:34;11.90;74.60
31113;DHT22;17763;48.730;9.136;2023-04-15T12:52:01;11.40;77.90
31113;DHT22;17763;48.730;9.136;2023-04-15T12:54:31;11.20;80.90
31113;DHT22;17763;48.730;9.136;2023-04-15T12:56:57;11.30;82.70
31113;DHT22;17763;48.730;9.136;2023-04-15T12:59:24;10.80;83.80
31113;DHT22;17763;48.730;9.136;2023-04-15T13:01:50;10.50;85.80
31113;DHT22;17763;48.730;9.136;2023-04-15T13:04:19;10.60;88.00
31113;DHT22;17763;48.730;9.136;2023-04-15T13:06:45;11.00;88.90
31113;DHT22;17763;48.730;9.136;2023-04-15T13:09:11;11.10;89.30
31113;DHT22;17763;48.730;9.136;2023-04-15T13:11:36;10.90;87.60
31113;DHT22;17763;48.730;9.136;2023-04-15T13:14:06;10.70;87.00
31113;DHT22;17763;48.730;9.136;2023-04-15T13:16:33;10.60;85.30
31113;DHT22;17763;48.730;9.136;2023-04-15T13:18:59;10.60;83.40
31113;DHT22;17763;48.730;9.136;2023-04-15T13:21:26;10.60;83.50
31113;DHT22;17763;48.730;9.136;2023-04-15T13:23:52;10.60;83.70
31113;DHT22;17763;48.730;9.136;2023-04-15T13:26:21;10.80;84.50
31113;DHT22;17763;48.730;9.136;2023-04-15T13:28:46;10.90;83.20
31113;DHT22;17763;48.730;9.136;2023-04-15T13:31:12;11.10;83.50
31113;DHT22;17763;48.730;9.136;2023-04-15T13:33:40;11.20;82.20
31113;DHT22;17763;48.730;9.136;2023-04-15T13:36:06;11.20;81.30
31113;DHT22;17763;48.730;9.136;2023-04-15T13:38:32;11.20;80.90
31113;DHT22;17763;48.730;9.136;2023-04-15T13:40:58;11.20;81.90
31113;DHT22;17763;48.730;9.136;2023-04-15T13:43:27;11.10;82.70
31113;DHT22;17763;48.730;9.136;2023-04-15T13:45:53;11.20;78.90
31113;DHT22;17763;48.730;9.136;2023-04-15T13:48:18;11.20;76.90
31113;DHT22;17763;48.730;9.136;2023-04-15T13:50:44;11.10;74.20
31113;DHT22;17763;48.730;9.136;2023-04-15T13:53:11;11.10;74.30
31113;DHT22;17763;48.730;9.136;2023-04-15T13:55:36;11.10;74.60
31113;DHT22;17763;48.730;9.136;2023-04-15T13:58:06;11.30;75.60
31113;DHT22;17763;48.730;9.136;2023-04-15T14:00:32;11.50;73.40
31113;DHT22;17763;48.730;9.136;2023-04-15T14:03:00;11.40;70.50
31113;DHT22;17763;48.730;9.136;2023-04-15T14:05:26;11.40;69.10
31113;DHT22;17763;48.730;9.136;2023-04-15T14:07:52;11.30;69.20
31113;DHT22;17763;48.730;9.136;2023-04-15T14:10:18;11.20;69.00
31113;DHT22;17763;48.730;9.136;2023-04-15T14:12:43;11.20;68.20
31113;DHT22;17763;48.730;9.136;2023-04-15T14:15:09;11.10;68.60
31113;DHT22;17763;48.730;9.136;2023-04-15T14:17:35;11.00;69.00
31113;DHT22;17763;48.730;9.136;2023-04-15T14:20:06;10.90;69.80
31113;DHT22;17763;48.730;9.136;2023-04-15T14:22:32;11.00;70.10
31113;DHT22;17763;48.730;9.136;2023-04-15T14:24:57;10.90;68.40
31113;DHT22;17763;48.730;9.136;2023-04-15T14:27:25;10.90;63.50
31113;DHT22;17763;48.730;9.136;2023-04-15T14:29:51;10.90;62.70
31113;DHT22;17763;48.730;9.136;2023-04-15T14:32:18;10.90;63.90
31113;DHT22;17763;48.730;9.136;2023-04-15T14:34:44;10.90;62.60
31113;DHT22;17763;48.730;9.136;2023-04-15T14:37:09;10.90;61.50
31113;DHT22;17763;48.730;9.136;2023-04-15T14:39:41;10.90;62.00
31113;DHT22;17763;48.730;9.136;2023-04-15T14:42:09;10.90;62.50
31113;DHT22;17763;48.730;9.136;2023-04-15T14:44:35;10.80;63.90
31113;DHT22;17763;48.730;9.136;2023-04-15T14:47:01;10.90;64.20
31113;DHT22;17763;48.730;9.136;2023-04-15T14:49:27;10.80;64.00
31113;DHT22;17763;48.730;9.136;2023-04-15T14:51:54;10.70;65.20
31113;DHT22;17763;48.730;9.136;2023-04-15T14:54:20;10.60;66.50
31113;DHT22;17763;48.730;9.136;2023-04-15T14:56:50;10.60;66.60
31113;DHT22;17763;48.730;9.136;2023-04-15T14:59:18;10.50;65.90
31113;DHT22;17763;48.730;9.136;2023-04-15T15:01:44;10.40;66.90
31113;DHT22;17763;48.730;9.136;2023-04-15T15:04:10;10.30;68.10
31113;DHT22;17763;48.730;9.136;2023-04-15T15:06:35;10.20;68.50
31113;DHT22;17763;48.730;9.136;2023-04-15T15:09:04;10.10;69.40
31113;DHT22;17763;48.730;9.136;2023-04-15T15:11:32;10.00;70.80
31113;DHT22;17763;48.730;9.136;2023-04-15T15:14:01;10.00;72.50
31113;DHT22;17763;48.730;9.136;2023-04-15T15:16:29;9.90;73.20
31113;DHT22;17763;48.730;9.136;2023-04-15T15:19:03;9.70;73.90
31113;DHT22;17763;48.730;9.136;2023-04-15T15:21:29;9.70;74.20
31113;DHT22;17763;48.730;9.136;2023-04-15T15:23:55;9.60;74.90
31113;DHT22;17763;48.730;9.136;2023-04-15T15:26:21;9.50;76.00
31113;DHT22;17763;48.730;9.136;2023-04-15T15:28:47;9.50;76.80
31113;DHT22;17763;48.730;9.136;2023-04-15T15:31:15;9.50;77.30
31113;DHT22;17763;48.730;9.136;2023-04-15T15:33:43;9.50;77.70
31113;DHT22;17763;48.730;9.136;2023-04-15T15:36:09;9.50;78.00
31113;DHT22;17763;48.730;9.136;2023-04-15T15:38:35;9.50;78.00
31113;DHT22;17763;48.730;9.136;2023-04-15T15:41:01;9.50;78.40
31113;DHT22;17763;48.730;9.136;2023-04-15T15:43:27;9.50;80.40
31113;DHT22;17763;48.730;9.136;2023-04-15T15:45:53;9.50;81.30
31113;DHT22;17763;48.730;9.136;2023-04-15T15:48:21;9.50;81.90
31113;DHT22;17763;48.730;9.136;2023-04-15T15:50:47;9.50;83.30
31113;DHT22;17763;48.730;9.136;2023-04-15T15:53:13;9.50;83.10
31113;DHT22;17763;48.730;9.136;2023-04-15T15:55:47;9.50;84.00
31113;DHT22;17763;48.730;9.136;2023-04-15T15:58:15;9.50;82.00
31113;DHT22;17763;48.730;9.136;2023-04-15T16:00:41;9.50;81.80
31113;DHT22;17763;48.730;9.136;2023-04-15T16:03:07;9.50;82.50
31113;DHT22;17763;48.730;9.136;2023-04-15T16:05:33;9.50;80.50
31113;DHT22;17763;48.730;9.136;2023-04-15T16:07:59;9.50;81.80
31113;DHT22;17763;48.730;9.136;2023-04-15T16:10:25;9.50;80.20